Time;durP1;ratioP1;P1;durP2;ratioP2;P2;SDS_P1;SDS_P2;PMS_P1;PMS_P2;Temp;Humidity;BMP_temperature;BMP_pressure;BME280_temperature;BME280_humidity;BME280_pressure;Samples;Min_cycle;Max_cycle;Signal;HPM_P1;HPM_P2
2022/08/23 00:01:06;;;;;;;;;;;16.20;99.90;;;;;;5074821;28;19924;-67
2022/08/23 00:03:31;;;;;;;;;;;16.10;99.90;;;;;;5068372;28;19927;-67
2022/08/23 00:05:57;;;;;;;;;;;16.10;99.90;;;;;;5067535;28;19924;-66
2022/08/23 00:08:23;;;;;;;;;;;16.10;99.90;;;;;;5071888;28;19928;-67
2022/08/23 00:10:48;;;;;;;;;;;16.20;99.90;;;;;;5071341;28;20243;-67
2022/08/23 00:13:14;;;;;;;;;;;16.20;99.90;;;;;;5072298;28;20365;-67
2022/08/23 00:15:39;;;;;;;;;;;16.10;99.90;;;;;;5073845;28;19924;-67
2022/08/23 00:18:05;;;;;;;;;;;16.10;99.90;;;;;;5072627;28;20380;-66
2022/08/23 00:20:30;;;;;;;;;;;16.10;99.90;;;;;;5069070;28;19924;-67
2022/08/23 00:22:56;;;;;;;;;;;16.10;99.90;;;;;;5068586;28;20288;-67
2022/08/23 00:25:21;;;;;;;;;;;16.10;99.90;;;;;;5068005;28;19928;-67
2022/08/23 00:27:47;;;;;;;;;;;16.00;99.90;;;;;;5071802;28;19920;-67
2022/08/23 00:30:14;;;;;;;;;;;16.00;99.90;;;;;;5047529;28;19924;-66
2022/08/23 00:32:39;;;;;;;;;;;16.00;99.90;;;;;;5066646;28;20435;-67
2022/08/23 00:35:05;;;;;;;;;;;16.00;99.90;;;;;;5066781;28;20011;-67
2022/08/23 00:37:31;;;;;;;;;;;16.00;99.90;;;;;;5068014;28;20432;-67
2022/08/23 00:39:57;;;;;;;;;;;16.00;99.90;;;;;;5070088;28;19926;-66
2022/08/23 00:48:04;;;;;;;;;;;15.80;99.90;;;;;;5066353;28;19928;-66
2022/08/23 00:50:45;;;;;;;;;;;15.80;99.90;;;;;;5066939;28;19920;-66
2022/08/23 00:53:13;;;;;;;;;;;15.80;99.90;;;;;;5067890;28;19928;-66
2022/08/23 00:55:41;;;;;;;;;;;15.70;99.90;;;;;;5056264;28;19928;-67
2022/08/23 00:58:07;;;;;;;;;;;15.70;99.90;;;;;;5062836;28;20288;-67
2022/08/23 01:00:33;;;;;;;;;;;15.70;99.90;;;;;;5078571;28;19924;-67
2022/08/23 01:02:58;;;;;;;;;;;15.70;99.90;;;;;;5065419;28;20011;-67
2022/08/23 01:05:27;;;;;;;;;;;15.70;99.90;;;;;;5069259;28;19928;-66
2022/08/23 01:07:56;;;;;;;;;;;15.60;99.90;;;;;;5074926;28;20019;-67
2022/08/23 01:10:31;;;;;;;;;;;15.70;99.90;;;;;;5069978;28;19927;-67
2022/08/23 01:13:07;;;;;;;;;;;15.60;99.90;;;;;;5049715;28;20389;-67
2022/08/23 01:15:35;;;;;;;;;;;15.60;99.90;;;;;;5065779;28;19924;-67
2022/08/23 01:18:03;;;;;;;;;;;15.60;99.90;;;;;;5070027;28;19970;-67
2022/08/23 01:20:32;;;;;;;;;;;15.60;99.90;;;;;;5084222;28;20430;-66
2022/08/23 01:23:16;;;;;;;;;;;15.60;99.90;;;;;;5067439;28;19920;-66
2022/08/23 01:25:41;;;;;;;;;;;15.60;99.90;;;;;;5072248;28;20011;-66
2022/08/23 01:28:07;;;;;;;;;;;15.60;99.90;;;;;;5073067;28;20763;-66
2022/08/23 01:30:34;;;;;;;;;;;15.60;99.90;;;;;;5057289;28;19920;-66
2022/08/23 01:33:01;;;;;;;;;;;15.50;99.90;;;;;;5072111;28;19959;-65
2022/08/23 01:35:34;;;;;;;;;;;15.50;99.90;;;;;;5088803;28;19927;-66
2022/08/23 01:38:00;;;;;;;;;;;15.50;99.90;;;;;;5049457;28;19921;-66
2022/08/23 01:40:25;;;;;;;;;;;15.40;99.90;;;;;;5066934;28;19924;-66
2022/08/23 01:42:50;;;;;;;;;;;15.40;99.90;;;;;;5069252;28;20332;-67
2022/08/23 01:45:16;;;;;;;;;;;15.40;99.90;;;;;;5089685;28;19924;-66
2022/08/23 01:47:42;;;;;;;;;;;15.40;99.90;;;;;;5070950;28;19981;-66
2022/08/23 01:50:08;;;;;;;;;;;15.30;99.90;;;;;;5069678;28;20276;-66
2022/08/23 01:52:35;;;;;;;;;;;15.30;99.90;;;;;;5054318;28;19921;-66
2022/08/23 01:55:00;;;;;;;;;;;15.30;99.90;;;;;;5081102;28;20023;-65
2022/08/23 01:57:27;;;;;;;;;;;15.30;99.90;;;;;;5072173;28;20018;-66
2022/08/23 01:59:53;;;;;;;;;;;15.30;99.90;;;;;;5070940;28;20407;-65
2022/08/23 02:02:20;;;;;;;;;;;15.20;99.90;;;;;;5071396;28;19999;-67
2022/08/23 02:04:45;;;;;;;;;;;15.20;99.90;;;;;;5089421;28;19947;-67
2022/08/23 02:07:11;;;;;;;;;;;15.20;99.90;;;;;;5067409;28;19924;-67
2022/08/23 02:09:36;;;;;;;;;;;15.10;99.90;;;;;;5073580;28;19932;-66
2022/08/23 02:12:02;;;;;;;;;;;15.10;99.90;;;;;;5073988;28;19928;-70
2022/08/23 02:14:28;;;;;;;;;;;15.00;99.90;;;;;;5070612;28;20339;-71
2022/08/23 02:16:54;;;;;;;;;;;15.00;99.90;;;;;;5085950;28;19943;-71
2022/08/23 02:19:20;;;;;;;;;;;15.00;99.90;;;;;;5071559;28;19959;-72
2022/08/23 02:21:46;;;;;;;;;;;14.90;99.90;;;;;;5074104;28;19959;-71
2022/08/23 02:24:19;;;;;;;;;;;14.90;99.90;;;;;;5067187;28;19931;-72
2022/08/23 02:26:46;;;;;;;;;;;14.90;99.90;;;;;;5072214;28;19920;-70
2022/08/23 02:29:13;;;;;;;;;;;14.90;99.90;;;;;;5076462;28;19930;-71
2022/08/23 02:31:38;;;;;;;;;;;14.80;99.90;;;;;;5075511;28;20018;-71
2022/08/23 02:34:04;;;;;;;;;;;14.90;99.90;;;;;;5076288;28;20498;-71
2022/08/23 02:36:30;;;;;;;;;;;14.80;99.90;;;;;;5075195;28;20003;-72
2022/08/23 02:38:56;;;;;;;;;;;14.80;99.90;;;;;;5074242;28;20362;-71
2022/08/23 02:41:21;;;;;;;;;;;14.90;99.90;;;;;;5092531;28;20150;-71
2022/08/23 02:43:49;;;;;;;;;;;14.90;99.90;;;;;;5072099;28;19920;-71
2022/08/23 02:46:15;;;;;;;;;;;14.90;99.90;;;;;;5077635;28;19963;-71
2022/08/23 02:48:40;;;;;;;;;;;14.90;99.90;;;;;;5094059;28;19970;-71
2022/08/23 02:51:07;;;;;;;;;;;14.90;99.90;;;;;;5058531;28;20289;-71
2022/08/23 02:53:33;;;;;;;;;;;14.90;99.90;;;;;;5086963;28;19924;-71
2022/08/23 02:55:58;;;;;;;;;;;14.90;99.90;;;;;;5071548;28;19930;-72
2022/08/23 02:58:24;;;;;;;;;;;14.90;99.90;;;;;;5069517;28;19932;-71
2022/08/23 03:00:50;;;;;;;;;;;14.90;99.90;;;;;;5089735;28;19927;-72
2022/08/23 03:03:16;;;;;;;;;;;14.80;99.90;;;;;;5070550;28;19920;-70
2022/08/23 03:05:42;;;;;;;;;;;14.80;99.90;;;;;;5072291;28;19924;-71
2022/08/23 03:08:07;;;;;;;;;;;14.80;99.90;;;;;;5089953;28;19928;-70
2022/08/23 03:10:33;;;;;;;;;;;14.80;99.90;;;;;;5071795;28;19950;-72
2022/08/23 03:12:58;;;;;;;;;;;14.80;99.90;;;;;;5080294;28;19920;-71
2022/08/23 03:15:24;;;;;;;;;;;14.80;99.90;;;;;;5070737;28;19920;-71
2022/08/23 03:17:49;;;;;;;;;;;14.80;99.90;;;;;;5066867;28;19920;-71
2022/08/23 03:20:15;;;;;;;;;;;14.80;99.90;;;;;;5073875;28;19935;-70
2022/08/23 03:22:41;;;;;;;;;;;14.70;99.90;;;;;;5075606;28;20018;-72
2022/08/23 03:25:07;;;;;;;;;;;14.70;99.90;;;;;;5067113;28;19932;-70
2022/08/23 03:27:33;;;;;;;;;;;14.60;99.90;;;;;;5066056;28;19935;-71
2022/08/23 03:29:58;;;;;;;;;;;14.60;99.90;;;;;;5092215;28;19927;-70
2022/08/23 03:32:25;;;;;;;;;;;14.60;99.90;;;;;;5075387;28;19920;-71
2022/08/23 03:34:51;;;;;;;;;;;14.60;99.90;;;;;;5089795;28;20018;-71
2022/08/23 03:37:35;;;;;;;;;;;14.60;99.90;;;;;;5089781;28;19919;-71
2022/08/23 03:40:00;;;;;;;;;;;14.60;99.90;;;;;;5066380;28;19928;-71
2022/08/23 03:42:26;;;;;;;;;;;14.60;99.90;;;;;;5074694;28;20015;-70
2022/08/23 03:44:52;;;;;;;;;;;14.60;99.90;;;;;;5075278;28;19939;-71
2022/08/23 03:47:17;;;;;;;;;;;14.50;99.90;;;;;;5092104;28;19920;-71
2022/08/23 03:49:43;;;;;;;;;;;14.50;99.90;;;;;;5073887;28;20304;-71
2022/08/23 03:52:10;;;;;;;;;;;14.50;99.90;;;;;;5057557;28;20003;-72
2022/08/23 03:54:35;;;;;;;;;;;14.50;99.90;;;;;;5091703;28;20075;-72
2022/08/23 03:57:02;;;;;;;;;;;14.50;99.90;;;;;;5077958;28;20392;-71
2022/08/23 03:59:28;;;;;;;;;;;14.50;99.90;;;;;;5093170;28;20296;-71
2022/08/23 04:01:54;;;;;;;;;;;14.50;99.90;;;;;;5074935;28;19970;-71
2022/08/23 04:04:20;;;;;;;;;;;14.60;99.90;;;;;;5074839;28;19960;-71
2022/08/23 04:06:45;;;;;;;;;;;14.60;99.90;;;;;;5066512;28;19920;-71
2022/08/23 04:09:11;;;;;;;;;;;14.60;99.90;;;;;;5072040;28;19924;-70
2022/08/23 04:11:38;;;;;;;;;;;14.60;99.90;;;;;;5093062;28;19921;-70
2022/08/23 04:14:05;;;;;;;;;;;14.50;99.90;;;;;;5073291;28;19920;-71
2022/08/23 04:16:36;;;;;;;;;;;14.50;99.90;;;;;;5092987;28;19932;-70
2022/08/23 04:19:08;;;;;;;;;;;14.40;99.90;;;;;;5073250;28;19926;-70
2022/08/23 04:21:35;;;;;;;;;;;14.40;99.90;;;;;;5074236;28;19924;-71
2022/08/23 04:24:01;;;;;;;;;;;14.40;99.90;;;;;;5092185;28;20000;-71
2022/08/23 04:26:26;;;;;;;;;;;14.40;99.90;;;;;;5091925;28;20423;-71
2022/08/23 04:28:52;;;;;;;;;;;14.30;99.90;;;;;;5073880;28;19980;-71
2022/08/23 04:31:19;;;;;;;;;;;14.20;99.90;;;;;;5073857;28;19938;-71
2022/08/23 04:33:44;;;;;;;;;;;14.20;99.90;;;;;;5092135;28;19927;-70
2022/08/23 04:36:10;;;;;;;;;;;14.20;99.90;;;;;;5073703;28;19921;-72
2022/08/23 04:38:35;;;;;;;;;;;14.20;99.90;;;;;;5073973;28;19931;-72
2022/08/23 04:43:45;;;;;;;;;;;14.20;99.90;;;;;;5092455;28;19920;-72
2022/08/23 04:46:15;;;;;;;;;;;14.20;99.90;;;;;;5081927;28;19925;-73
2022/08/23 04:48:44;;;;;;;;;;;14.30;99.90;;;;;;5071813;28;19978;-71
2022/08/23 04:51:10;;;;;;;;;;;14.30;99.90;;;;;;5071678;28;19928;-71
2022/08/23 04:53:36;;;;;;;;;;;14.40;99.90;;;;;;5070596;28;19927;-71
2022/08/23 04:56:02;;;;;;;;;;;14.40;99.90;;;;;;5070245;28;20486;-71
2022/08/23 04:58:28;;;;;;;;;;;14.50;99.90;;;;;;5077407;28;19986;-71
2022/08/23 05:00:56;;;;;;;;;;;14.50;99.90;;;;;;5053867;28;20714;-71
2022/08/23 05:03:22;;;;;;;;;;;14.60;99.90;;;;;;5063317;28;19927;-71
2022/08/23 05:05:47;;;;;;;;;;;14.60;99.90;;;;;;5069591;28;19924;-72
2022/08/23 05:08:13;;;;;;;;;;;14.60;99.90;;;;;;5087334;28;20740;-72
2022/08/23 05:10:38;;;;;;;;;;;14.70;99.90;;;;;;5071866;28;19924;-72
2022/08/23 05:13:04;;;;;;;;;;;14.70;99.90;;;;;;5091017;28;19956;-71
2022/08/23 05:15:29;;;;;;;;;;;14.80;99.90;;;;;;5055449;28;19924;-72
2022/08/23 05:17:55;;;;;;;;;;;14.90;99.90;;;;;;5063120;28;20044;-72
2022/08/23 05:20:20;;;;;;;;;;;15.00;99.90;;;;;;5058821;28;19920;-72
2022/08/23 05:22:46;;;;;;;;;;;15.10;99.90;;;;;;5093115;22;19928;-67
2022/08/23 05:25:11;;;;;;;;;;;15.20;99.90;;;;;;5065275;28;19925;-67
2022/08/23 05:27:37;;;;;;;;;;;15.40;99.90;;;;;;5064324;28;20381;-67
2022/08/23 05:30:03;;;;;;;;;;;15.60;99.90;;;;;;5067955;28;20365;-67
2022/08/23 05:32:29;;;;;;;;;;;15.70;99.90;;;;;;5066498;28;19921;-67
2022/08/23 05:34:54;;;;;;;;;;;15.90;99.90;;;;;;5053885;28;19921;-67
2022/08/23 05:37:20;;;;;;;;;;;16.10;99.90;;;;;;5063755;28;20384;-67
2022/08/23 05:39:45;;;;;;;;;;;16.20;99.90;;;;;;5069500;28;19920;-67
2022/08/23 05:42:13;;;;;;;;;;;16.30;99.90;;;;;;5064418;28;19924;-67
2022/08/23 05:44:38;;;;;;;;;;;16.40;99.90;;;;;;5053793;28;20308;-67
2022/08/23 05:47:05;;;;;;;;;;;16.40;99.90;;;;;;5073772;28;19925;-66
2022/08/23 05:49:31;;;;;;;;;;;16.70;99.90;;;;;;5058814;28;20257;-67
2022/08/23 05:51:56;;;;;;;;;;;17.80;99.90;;;;;;5068670;28;19927;-67
2022/08/23 05:54:22;;;;;;;;;;;19.00;99.90;;;;;;5052370;28;19927;-67
2022/08/23 05:56:48;;;;;;;;;;;20.10;99.90;;;;;;5070129;28;19927;-67
2022/08/23 05:59:15;;;;;;;;;;;21.10;99.90;;;;;;5070924;28;19938;-68
2022/08/23 06:01:41;;;;;;;;;;;22.00;99.90;;;;;;5067581;28;20019;-67
2022/08/23 06:04:10;;;;;;;;;;;22.70;99.90;;;;;;5069793;28;20714;-68
2022/08/23 06:06:35;;;;;;;;;;;23.50;99.90;;;;;;5070781;28;19974;-68
2022/08/23 06:09:02;;;;;;;;;;;24.20;99.90;;;;;;5067212;28;19952;-68
2022/08/23 06:11:28;;;;;;;;;;;24.80;99.30;;;;;;5054051;28;19920;-68
2022/08/23 06:13:55;;;;;;;;;;;25.40;98.10;;;;;;5068200;28;19932;-68
2022/08/23 06:16:26;;;;;;;;;;;25.90;96.90;;;;;;5071615;28;19952;-68
2022/08/23 06:18:53;;;;;;;;;;;26.30;96.20;;;;;;5065529;28;19962;-68
2022/08/23 06:21:18;;;;;;;;;;;26.70;95.80;;;;;;5071446;28;20391;-68
2022/08/23 06:23:46;;;;;;;;;;;;;;;;;;5063217;28;19946;-68
2022/08/23 06:26:14;;;;;;;;;;;27.40;94.00;;;;;;5068993;28;19924;-68
2022/08/23 06:28:40;;;;;;;;;;;27.70;93.90;;;;;;5065335;28;20398;-68
2022/08/23 06:31:06;;;;;;;;;;;27.80;93.30;;;;;;5067594;28;19920;-68
2022/08/23 06:33:31;;;;;;;;;;;27.90;93.50;;;;;;5066460;28;19928;-68
2022/08/23 06:35:57;;;;;;;;;;;;;;;;;;5070227;28;19920;-68
2022/08/23 06:38:23;;;;;;;;;;;28.70;91.90;;;;;;5057500;28;19928;-68
2022/08/23 06:40:48;;;;;;;;;;;28.90;92.60;;;;;;5069440;28;19924;-68
2022/08/23 06:43:14;;;;;;;;;;;29.20;92.30;;;;;;5068879;28;19931;-68
2022/08/23 06:45:39;;;;;;;;;;;29.40;92.00;;;;;;5067688;28;19947;-68
2022/08/23 06:48:06;;;;;;;;;;;30.20;90.90;;;;;;5055814;28;19920;-68
2022/08/23 06:50:31;;;;;;;;;;;30.10;91.10;;;;;;5062977;28;20446;-68
2022/08/23 06:52:56;;;;;;;;;;;30.30;90.70;;;;;;5070924;28;19956;-68
2022/08/23 06:55:22;;;;;;;;;;;30.50;90.60;;;;;;5044690;28;19971;-68
2022/08/23 06:57:47;;;;;;;;;;;30.60;89.30;;;;;;5072324;28;19924;-68
2022/08/23 07:00:13;;;;;;;;;;;30.90;89.80;;;;;;5072203;28;19943;-68
2022/08/23 07:02:39;;;;;;;;;;;31.10;88.90;;;;;;5061478;28;20588;-68
2022/08/23 07:05:04;;;;;;;;;;;31.30;89.00;;;;;;5067006;28;19928;-68
2022/08/23 07:07:30;;;;;;;;;;;31.40;89.30;;;;;;5061737;28;20705;-68
2022/08/23 07:09:55;;;;;;;;;;;31.80;88.50;;;;;;5067814;28;20011;-68
2022/08/23 07:12:21;;;;;;;;;;;31.80;88.90;;;;;;5076454;28;19920;-68
2022/08/23 07:14:46;;;;;;;;;;;32.10;88.70;;;;;;5071853;28;20031;-68
2022/08/23 07:17:13;;;;;;;;;;;32.00;86.50;;;;;;5058405;28;19927;-68
2022/08/23 07:19:40;;;;;;;;;;;32.10;88.00;;;;;;5069889;28;19920;-68
2022/08/23 07:22:05;;;;;;;;;;;32.10;86.60;;;;;;5057501;28;19983;-68
2022/08/23 07:24:31;;;;;;;;;;;32.30;87.20;;;;;;5069216;28;19967;-67
2022/08/23 07:26:56;;;;;;;;;;;32.10;81.00;;;;;;5062115;28;19956;-68
2022/08/23 07:29:22;;;;;;;;;;;31.80;83.40;;;;;;5054597;28;20002;-68
2022/08/23 07:31:50;;;;;;;;;;;31.80;78.50;;;;;;5042740;28;19921;-68
2022/08/23 07:34:16;;;;;;;;;;;31.60;74.60;;;;;;5073685;28;20384;-68
2022/08/23 07:36:42;;;;;;;;;;;32.00;76.80;;;;;;5062519;28;19921;-68
2022/08/23 07:39:08;;;;;;;;;;;31.80;78.90;;;;;;5056810;28;20397;-68
2022/08/23 07:41:34;;;;;;;;;;;31.80;73.00;;;;;;5071775;28;19925;-68
2022/08/23 07:44:01;;;;;;;;;;;32.00;72.00;;;;;;5072185;28;19959;-68
2022/08/23 07:46:27;;;;;;;;;;;31.30;72.40;;;;;;5071180;28;19985;-68
2022/08/23 07:48:54;;;;;;;;;;;31.00;73.60;;;;;;5072095;28;19934;-68
2022/08/23 07:51:20;;;;;;;;;;;30.90;74.60;;;;;;5055122;28;19932;-68
2022/08/23 07:53:45;;;;;;;;;;;30.30;75.80;;;;;;5055205;28;19920;-68
2022/08/23 07:56:11;;;;;;;;;;;30.00;75.80;;;;;;5072418;28;20274;-67
2022/08/23 07:58:37;;;;;;;;;;;28.80;75.90;;;;;;5068705;28;19925;-67
2022/08/23 08:01:14;;;;;;;;;;;28.30;80.10;;;;;;5074240;28;19924;-67
2022/08/23 08:03:49;;;;;;;;;;;28.00;82.10;;;;;;5058661;28;20324;-67
2022/08/23 08:06:16;;;;;;;;;;;27.60;82.70;;;;;;5073108;28;19928;-68
2022/08/23 08:08:42;;;;;;;;;;;27.40;82.90;;;;;;5068248;28;20400;-67
2022/08/23 08:11:09;;;;;;;;;;;27.30;83.80;;;;;;5076882;28;19921;-67
2022/08/23 08:13:39;;;;;;;;;;;27.30;86.00;;;;;;5066111;28;19921;-67
2022/08/23 08:16:05;;;;;;;;;;;27.20;84.70;;;;;;5074432;28;19924;-67
2022/08/23 08:18:31;;;;;;;;;;;27.10;86.40;;;;;;5060375;28;20511;-67
2022/08/23 08:20:56;;;;;;;;;;;27.10;84.90;;;;;;5073016;28;19987;-67
2022/08/23 08:23:22;;;;;;;;;;;27.20;87.10;;;;;;5058395;28;19931;-67
2022/08/23 08:25:47;;;;;;;;;;;27.20;84.00;;;;;;5063903;28;19950;-67
2022/08/23 08:28:13;;;;;;;;;;;26.60;83.20;;;;;;5071595;28;19928;-67
2022/08/23 08:30:39;;;;;;;;;;;26.70;84.80;;;;;;5063449;28;19925;-67
2022/08/23 08:33:04;;;;;;;;;;;26.90;86.80;;;;;;5072251;28;19928;-67
2022/08/23 08:35:30;;;;;;;;;;;26.90;86.50;;;;;;5070779;28;19924;-67
2022/08/23 08:37:55;;;;;;;;;;;26.90;85.00;;;;;;5071877;28;19921;-68
2022/08/23 08:40:26;;;;;;;;;;;26.80;87.30;;;;;;5064677;28;19924;-68
2022/08/23 08:42:51;;;;;;;;;;;26.90;88.10;;;;;;5050940;28;20406;-68
2022/08/23 08:45:19;;;;;;;;;;;26.80;87.40;;;;;;5070952;28;19940;-68
2022/08/23 08:47:49;;;;;;;;;;;26.90;88.40;;;;;;5057080;28;19927;-68
2022/08/23 08:50:27;;;;;;;;;;;26.90;86.90;;;;;;5071356;28;20278;-68
2022/08/23 08:52:52;;;;;;;;;;;26.90;87.40;;;;;;5051593;28;20005;-68
2022/08/23 08:55:21;;;;;;;;;;;26.80;85.00;;;;;;5054198;28;19956;-68
2022/08/23 08:57:47;;;;;;;;;;;26.80;88.20;;;;;;5062957;28;19924;-68
2022/08/23 09:00:16;;;;;;;;;;;26.80;85.40;;;;;;5068765;28;19932;-68
2022/08/23 09:02:41;;;;;;;;;;;26.80;86.40;;;;;;5069701;28;20812;-68
2022/08/23 09:05:15;;;;;;;;;;;26.70;87.30;;;;;;5053580;28;19935;-67
2022/08/23 09:07:44;;;;;;;;;;;26.70;87.60;;;;;;5068985;28;20268;-67
2022/08/23 09:10:09;;;;;;;;;;;26.60;87.80;;;;;;5074736;28;20012;-67
2022/08/23 09:12:41;;;;;;;;;;;26.60;84.80;;;;;;5071081;28;19999;-67
2022/08/23 09:15:25;;;;;;;;;;;26.60;84.70;;;;;;5068277;28;19920;-68
2022/08/23 09:17:55;;;;;;;;;;;26.60;82.00;;;;;;5062126;28;19921;-68
2022/08/23 09:20:22;;;;;;;;;;;26.60;82.50;;;;;;5086132;28;19920;-70
2022/08/23 09:22:50;;;;;;;;;;;26.60;84.10;;;;;;5072942;28;19932;-67
2022/08/23 09:25:16;;;;;;;;;;;26.50;83.60;;;;;;5070182;28;19925;-67
2022/08/23 09:27:43;;;;;;;;;;;26.60;85.70;;;;;;5077002;28;19927;-67
2022/08/23 09:30:09;;;;;;;;;;;26.70;86.20;;;;;;5056538;28;19921;-67
2022/08/23 09:32:36;;;;;;;;;;;26.70;86.10;;;;;;5071918;28;19920;-66
2022/08/23 09:35:07;;;;;;;;;;;26.70;84.80;;;;;;5074983;28;20015;-66
2022/08/23 09:37:45;;;;;;;;;;;26.70;85.30;;;;;;5069261;28;19920;-67
2022/08/23 09:40:14;;;;;;;;;;;26.90;87.00;;;;;;5056172;28;20007;-67
2022/08/23 09:42:40;;;;;;;;;;;27.10;88.70;;;;;;5074256;28;19927;-67
2022/08/23 09:45:22;;;;;;;;;;;27.20;86.50;;;;;;5057150;28;19928;-67
2022/08/23 09:47:48;;;;;;;;;;;27.30;86.00;;;;;;5074471;28;19927;-67
2022/08/23 09:50:24;;;;;;;;;;;27.50;86.20;;;;;;5074253;28;19928;-67
2022/08/23 09:52:53;;;;;;;;;;;27.70;85.80;;;;;;5062705;28;19974;-66
2022/08/23 09:55:37;;;;;;;;;;;27.80;85.20;;;;;;5073078;28;20290;-66
2022/08/23 09:58:05;;;;;;;;;;;27.80;85.80;;;;;;5054013;28;20333;-67
2022/08/23 10:00:33;;;;;;;;;;;27.70;85.20;;;;;;5074265;28;19924;-67
2022/08/23 10:03:18;;;;;;;;;;;27.70;84.10;;;;;;5081777;28;19921;-67
2022/08/23 10:05:48;;;;;;;;;;;27.70;85.70;;;;;;5074159;28;19928;-67
2022/08/23 10:08:20;;;;;;;;;;;27.70;85.40;;;;;;5054556;28;19924;-67
2022/08/23 10:10:52;;;;;;;;;;;27.60;82.20;;;;;;5074246;28;19921;-67
2022/08/23 10:13:19;;;;;;;;;;;27.80;85.30;;;;;;5073539;28;19946;-67
2022/08/23 10:15:59;;;;;;;;;;;27.90;85.90;;;;;;5067410;28;19925;-66
2022/08/23 10:18:44;;;;;;;;;;;28.00;86.00;;;;;;5053318;28;19924;-66
2022/08/23 10:21:16;;;;;;;;;;;28.10;86.50;;;;;;5073276;28;19920;-67
2022/08/23 10:23:50;;;;;;;;;;;28.20;86.00;;;;;;5069733;28;19971;-66
2022/08/23 10:26:20;;;;;;;;;;;28.30;84.70;;;;;;5073010;28;19928;-66
2022/08/23 10:31:56;;;;;;;;;;;28.00;79.30;;;;;;5063465;28;19924;-67
2022/08/23 10:34:34;;;;;;;;;;;28.20;80.30;;;;;;5074173;28;19921;-67
2022/08/23 10:37:06;;;;;;;;;;;28.10;81.60;;;;;;5068693;28;19975;-67
2022/08/23 10:39:32;;;;;;;;;;;28.20;82.50;;;;;;5072742;28;20331;-67
2022/08/23 10:42:03;;;;;;;;;;;28.30;84.60;;;;;;5072421;28;19960;-67
2022/08/23 10:44:31;;;;;;;;;;;28.30;84.10;;;;;;5072530;28;19958;-67
2022/08/23 10:47:09;;;;;;;;;;;28.30;81.90;;;;;;5083397;28;19927;-67
2022/08/23 10:49:36;;;;;;;;;;;28.40;82.30;;;;;;5072103;28;20014;-67
2022/08/23 10:52:03;;;;;;;;;;;28.20;80.80;;;;;;5071902;28;19921;-67
2022/08/23 10:54:47;;;;;;;;;;;28.20;80.80;;;;;;5072210;28;20444;-67
2022/08/23 10:57:15;;;;;;;;;;;28.30;82.80;;;;;;5069247;28;19982;-66
2022/08/23 10:59:41;;;;;;;;;;;28.40;83.90;;;;;;5072087;28;19924;-67
2022/08/23 11:02:16;;;;;;;;;;;28.50;78.30;;;;;;5070616;28;19970;-67
2022/08/23 11:05:03;;;;;;;;;;;28.30;78.90;;;;;;5071986;28;19925;-67
2022/08/23 11:07:30;;;;;;;;;;;28.30;79.20;;;;;;5071816;28;19921;-67
2022/08/23 11:10:05;;;;;;;;;;;28.40;77.70;;;;;;5070560;28;20400;-67
2022/08/23 11:12:33;;;;;;;;;;;28.40;78.30;;;;;;5073032;28;19921;-66
2022/08/23 11:15:10;;;;;;;;;;;28.60;78.70;;;;;;5065156;28;20273;-65
2022/08/23 11:17:42;;;;;;;;;;;28.80;78.50;;;;;;5072029;28;19973;-66
2022/08/23 11:20:09;;;;;;;;;;;29.00;83.00;;;;;;5073110;28;19920;-66
2022/08/23 11:22:54;;;;;;;;;;;29.10;77.60;;;;;;5071422;28;20393;-66
2022/08/23 11:25:19;;;;;;;;;;;29.00;74.00;;;;;;5071331;28;19925;-66
2022/08/23 11:27:45;;;;;;;;;;;29.10;76.60;;;;;;5080201;28;19931;-66
2022/08/23 11:30:30;;;;;;;;;;;29.20;77.30;;;;;;5072564;28;19920;-66
2022/08/23 11:32:59;;;;;;;;;;;29.20;75.10;;;;;;5059491;28;19921;-66
2022/08/23 11:35:27;;;;;;;;;;;29.10;76.00;;;;;;5071753;28;19929;-66
2022/08/23 11:37:55;;;;;;;;;;;29.30;76.80;;;;;;5071992;28;19927;-65
2022/08/23 11:40:39;;;;;;;;;;;29.10;73.00;;;;;;5067401;28;19975;-65
2022/08/23 11:43:08;;;;;;;;;;;29.20;73.40;;;;;;5073260;28;19982;-65
2022/08/23 11:45:33;;;;;;;;;;;29.40;77.90;;;;;;5071560;28;20396;-66
2022/08/23 11:48:07;;;;;;;;;;;29.50;77.80;;;;;;5069354;28;20011;-65
2022/08/23 11:50:40;;;;;;;;;;;29.50;71.70;;;;;;5067236;28;19920;-65
2022/08/23 11:53:08;;;;;;;;;;;29.50;73.90;;;;;;5073443;28;19931;-65
2022/08/23 11:55:52;;;;;;;;;;;29.50;72.10;;;;;;5072981;28;20015;-65
2022/08/23 11:58:18;;;;;;;;;;;29.70;75.50;;;;;;5072749;28;20317;-65
2022/08/23 12:01:05;;;;;;;;;;;29.70;77.00;;;;;;5072617;28;19924;-65
2022/08/23 12:03:49;;;;;;;;;;;29.60;71.10;;;;;;5079250;28;19921;-65
2022/08/23 12:06:35;;;;;;;;;;;29.70;76.30;;;;;;5060932;28;19924;-65
2022/08/23 12:09:03;;;;;;;;;;;29.80;75.40;;;;;;5055712;28;20370;-65
2022/08/23 12:11:48;;;;;;;;;;;29.90;76.20;;;;;;5072185;28;20006;-65
2022/08/23 12:14:35;;;;;;;;;;;30.00;73.80;;;;;;5070528;28;20378;-65
2022/08/23 12:17:27;;;;;;;;;;;30.00;71.30;;;;;;5071972;28;19924;-65
2022/08/23 12:19:56;;;;;;;;;;;30.10;75.50;;;;;;5035864;28;19921;-65
2022/08/23 12:22:24;;;;;;;;;;;30.20;73.00;;;;;;5065888;28;19920;-65
2022/08/23 12:24:56;;;;;;;;;;;30.10;71.60;;;;;;5067179;28;19979;-65
2022/08/23 12:27:40;;;;;;;;;;;30.10;72.50;;;;;;5076785;28;19920;-65
2022/08/23 12:30:05;;;;;;;;;;;30.20;76.10;;;;;;5079962;28;19959;-65
2022/08/23 12:32:34;;;;;;;;;;;30.20;70.30;;;;;;5080549;28;19966;-65
2022/08/23 12:34:59;;;;;;;;;;;30.10;72.30;;;;;;5075653;28;19926;-65
2022/08/23 12:37:30;;;;;;;;;;;30.10;72.50;;;;;;5053614;28;19921;-65
2022/08/23 12:39:57;;;;;;;;;;;30.10;73.80;;;;;;5073313;28;19921;-65
2022/08/23 12:42:33;;;;;;;;;;;30.20;72.10;;;;;;5072935;28;19927;-65
2022/08/23 12:45:19;;;;;;;;;;;30.30;75.10;;;;;;5075891;28;20358;-65
2022/08/23 12:47:45;;;;;;;;;;;;;;;;;;5068237;28;19928;-65
2022/08/23 12:50:13;;;;;;;;;;;30.70;71.50;;;;;;5069591;28;19974;-66
2022/08/23 12:52:39;;;;;;;;;;;30.90;71.50;;;;;;5083782;28;20450;-64
2022/08/23 12:55:12;;;;;;;;;;;31.00;66.80;;;;;;5068378;28;19928;-65
2022/08/23 12:57:39;;;;;;;;;;;31.10;69.90;;;;;;5067784;28;19921;-66
2022/08/23 13:00:14;;;;;;;;;;;31.10;65.70;;;;;;5070676;28;19943;-66
2022/08/23 13:02:52;;;;;;;;;;;31.20;65.70;;;;;;5050128;28;19928;-66
2022/08/23 13:05:22;;;;;;;;;;;31.40;66.60;;;;;;5069748;28;19924;-66
2022/08/23 13:07:48;;;;;;;;;;;;;;;;;;5069960;28;19924;-66
2022/08/23 13:10:15;;;;;;;;;;;31.40;66.70;;;;;;5070574;28;19933;-66
2022/08/23 13:12:41;;;;;;;;;;;31.30;68.90;;;;;;5066511;28;19924;-66
2022/08/23 13:15:06;;;;;;;;;;;31.40;65.40;;;;;;5068684;28;19951;-67
2022/08/23 13:17:35;;;;;;;;;;;31.30;64.70;;;;;;5071768;28;19966;-67
2022/08/23 13:20:01;;;;;;;;;;;31.20;67.90;;;;;;5052541;28;19921;-67
2022/08/23 13:22:27;;;;;;;;;;;31.10;69.50;;;;;;5065674;28;19927;-67
2022/08/23 13:25:02;;;;;;;;;;;31.10;68.30;;;;;;5063368;28;19932;-67
2022/08/23 13:27:33;;;;;;;;;;;31.00;67.00;;;;;;5068144;28;19921;-66
2022/08/23 13:30:18;;;;;;;;;;;30.90;65.70;;;;;;5067832;28;20019;-67
2022/08/23 13:33:02;;;;;;;;;;;30.90;69.30;;;;;;5069260;28;19925;-67
2022/08/23 13:35:30;;;;;;;;;;;30.80;70.20;;;;;;5071350;28;19927;-67
2022/08/23 13:38:17;;;;;;;;;;;30.80;70.60;;;;;;5073177;28;19924;-67
2022/08/23 13:40:42;;;;;;;;;;;30.80;69.40;;;;;;5046575;28;19921;-67
2022/08/23 13:43:10;;;;;;;;;;;30.80;70.30;;;;;;5067218;28;20300;-67
2022/08/23 13:45:43;;;;;;;;;;;30.80;67.60;;;;;;5046064;28;19925;-67
2022/08/23 13:48:18;;;;;;;;;;;30.70;68.70;;;;;;5069831;28;19928;-67
2022/08/23 13:50:44;;;;;;;;;;;30.70;69.20;;;;;;5063221;28;20634;-67
2022/08/23 13:53:10;;;;;;;;;;;30.70;68.20;;;;;;5072207;28;20482;-67
2022/08/23 13:55:44;;;;;;;;;;;30.60;69.00;;;;;;5066210;28;19921;-67
2022/08/23 13:58:23;;;;;;;;;;;30.60;68.80;;;;;;5064341;28;19928;-67
2022/08/23 14:00:49;;;;;;;;;;;30.50;66.80;;;;;;5066562;28;19928;-66
2022/08/23 14:03:14;;;;;;;;;;;30.40;67.40;;;;;;5064419;28;20009;-66
2022/08/23 14:05:40;;;;;;;;;;;30.40;66.80;;;;;;5065809;28;19931;-66
2022/08/23 14:08:05;;;;;;;;;;;30.40;70.80;;;;;;5068852;28;20319;-66
2022/08/23 14:10:31;;;;;;;;;;;30.40;69.40;;;;;;5070938;28;19920;-66
2022/08/23 14:12:58;;;;;;;;;;;30.30;71.80;;;;;;5070078;28;19924;-66
2022/08/23 14:15:23;;;;;;;;;;;30.20;71.40;;;;;;5063770;28;19962;-66
2022/08/23 14:17:50;;;;;;;;;;;30.20;73.70;;;;;;5076080;28;19955;-66
2022/08/23 14:20:17;;;;;;;;;;;30.20;70.00;;;;;;5055690;28;19920;-66
2022/08/23 14:22:42;;;;;;;;;;;30.30;70.40;;;;;;5068489;28;19936;-66
2022/08/23 14:25:09;;;;;;;;;;;30.50;71.20;;;;;;5069115;28;20281;-66
2022/08/23 14:27:37;;;;;;;;;;;30.60;73.40;;;;;;5070089;28;19924;-66
2022/08/23 14:30:04;;;;;;;;;;;30.60;67.30;;;;;;5056039;28;19928;-67
2022/08/23 14:32:30;;;;;;;;;;;30.40;66.60;;;;;;5076318;28;19920;-66
2022/08/23 14:34:56;;;;;;;;;;;30.40;72.10;;;;;;5057830;28;20231;-67
2022/08/23 14:37:21;;;;;;;;;;;30.30;67.10;;;;;;5071194;28;19970;-66